Doddington, United Kingdom
Current Conditions -  °F | °C
As of 9:58 PM on Friday 24 Oct 2014 (Local Time) from EGUN Reporting Station
Overcast Overcast  
Wind Chill: 13°   Ceiling: 5500
Heat Index: 13°   Visibility: 6mi
Dew Point: 13°   Wind: 6mph
Humidity: 100%   Direction: 300°WNW
Pressure: 29.94"   Gusts: NA
Location:  52.5°N, 0.06°E
Report Text: EGUN 242058Z AUTO 30005KT 9999 SCT012 OVC055 13/13 A2994 RMK AO2 SLP142 60001 T01260126 53022 $
Loading
Personal Weather Stations






























Interactive Weather Map
Tropical Storm Tracking
New forecast layout! Learn more

10-Day Weather Forecast

Advertisements
Track Severe Weather on mobile